sensor_id;sensor_type;location;lat;lon;timestamp;pressure;altitude;pressure_sealevel;temperature;humidity
7075;BME280;3578;51.568;6.932;2023-02-17T00:00:02;48867.94;;;-144.14;100.00
7075;BME280;3578;51.568;6.932;2023-02-17T00:02:29;48857.94;;;-144.14;100.00
7075;BME280;3578;51.568;6.932;2023-02-17T00:04:57;48837.94;;;-144.14;100.00
7075;BME280;3578;51.568;6.932;2023-02-17T00:07:24;48807.91;;;-144.14;100.00
7075;BME280;3578;51.568;6.932;2023-02-17T00:09:56;48817.91;;;-144.14;100.00
7075;BME280;3578;51.568;6.932;2023-02-17T00:12:23;48801.91;;;-144.14;100.00
7075;BME280;3578;51.568;6.932;2023-02-17T00:14:50;48767.88;;;-144.14;100.00
7075;BME280;3578;51.568;6.932;2023-02-17T00:17:17;48703.84;;;-144.14;100.00
7075;BME280;3578;51.568;6.932;2023-02-17T00:19:44;48699.84;;;-144.14;100.00
7075;BME280;3578;51.568;6.932;2023-02-17T00:22:13;48827.94;;;-144.14;100.00
7075;BME280;3578;51.568;6.932;2023-02-17T00:24:40;48703.84;;;-144.14;100.00
7075;BME280;3578;51.568;6.932;2023-02-17T00:27:07;48535.72;;;-144.14;100.00
7075;BME280;3578;51.568;6.932;2023-02-17T00:29:34;48485.69;;;-144.14;100.00
7075;BME280;3578;51.568;6.932;2023-02-17T00:32:01;48449.66;;;-144.14;100.00
7075;BME280;3578;51.568;6.932;2023-02-17T00:34:29;48447.66;;;-144.14;100.00
7075;BME280;3578;51.568;6.932;2023-02-17T00:36:56;48449.66;;;-144.14;100.00
7075;BME280;3578;51.568;6.932;2023-02-17T00:39:24;48445.66;;;-144.14;100.00
7075;BME280;3578;51.568;6.932;2023-02-17T00:41:51;48501.69;;;-144.14;100.00
7075;BME280;3578;51.568;6.932;2023-02-17T00:44:21;48483.69;;;-144.14;100.00
7075;BME280;3578;51.568;6.932;2023-02-17T00:46:49;48583.75;;;-144.14;100.00
7075;BME280;3578;51.568;6.932;2023-02-17T00:49:20;48551.72;;;-144.14;100.00
7075;BME280;3578;51.568;6.932;2023-02-17T00:51:49;48517.72;;;-144.14;100.00
7075;BME280;3578;51.568;6.932;2023-02-17T00:54:18;48611.78;;;-144.14;100.00
7075;BME280;3578;51.568;6.932;2023-02-17T00:56:47;48757.88;;;-144.14;100.00
7075;BME280;3578;51.568;6.932;2023-02-17T00:59:14;48805.91;;;-144.14;100.00
7075;BME280;3578;51.568;6.932;2023-02-17T01:01:41;48763.88;;;-144.14;100.00
7075;BME280;3578;51.568;6.932;2023-02-17T01:04:08;48821.91;;;-144.14;100.00
7075;BME280;3578;51.568;6.932;2023-02-17T01:06:38;48871.97;;;-144.14;100.00
7075;BME280;3578;51.568;6.932;2023-02-17T01:09:07;48875.97;;;-144.14;100.00
7075;BME280;3578;51.568;6.932;2023-02-17T01:11:35;48944.00;;;-144.14;100.00
7075;BME280;3578;51.568;6.932;2023-02-17T01:14:05;48950.03;;;-144.14;100.00
7075;BME280;3578;51.568;6.932;2023-02-17T01:16:35;48885.97;;;-144.14;100.00
7075;BME280;3578;51.568;6.932;2023-02-17T01:19:04;48809.91;;;-144.14;100.00
7075;BME280;3578;51.568;6.932;2023-02-17T01:21:33;48757.88;;;-144.14;100.00
7075;BME280;3578;51.568;6.932;2023-02-17T01:24:03;48741.88;;;-144.14;100.00
7075;BME280;3578;51.568;6.932;2023-02-17T01:26:32;48731.84;;;-144.14;100.00
7075;BME280;3578;51.568;6.932;2023-02-17T01:28:59;48647.78;;;-144.14;100.00
7075;BME280;3578;51.568;6.932;2023-02-17T01:31:29;48707.84;;;-144.14;100.00
7075;BME280;3578;51.568;6.932;2023-02-17T01:33:59;48745.88;;;-144.14;100.00
7075;BME280;3578;51.568;6.932;2023-02-17T01:36:26;48727.84;;;-144.14;100.00
7075;BME280;3578;51.568;6.932;2023-02-17T01:38:54;48719.84;;;-144.14;100.00
7075;BME280;3578;51.568;6.932;2023-02-17T01:41:24;48759.88;;;-144.14;100.00
7075;BME280;3578;51.568;6.932;2023-02-17T01:44:09;48823.91;;;-144.14;100.00
7075;BME280;3578;51.568;6.932;2023-02-17T01:46:39;48986.03;;;-144.14;100.00
7075;BME280;3578;51.568;6.932;2023-02-17T01:49:25;49098.13;;;-144.14;100.00
7075;BME280;3578;51.568;6.932;2023-02-17T01:52:05;49186.22;;;-144.14;100.00
7075;BME280;3578;51.568;6.932;2023-02-17T01:54:38;49242.25;;;-144.14;100.00
7075;BME280;3578;51.568;6.932;2023-02-17T01:57:08;49206.22;;;-144.14;100.00
7075;BME280;3578;51.568;6.932;2023-02-17T01:59:36;49244.25;;;-144.14;100.00
7075;BME280;3578;51.568;6.932;2023-02-17T02:02:05;49216.22;;;-144.14;100.00
7075;BME280;3578;51.568;6.932;2023-02-17T02:04:36;49128.16;;;-144.14;100.00
7075;BME280;3578;51.568;6.932;2023-02-17T02:07:10;49148.19;;;-144.14;100.00
7075;BME280;3578;51.568;6.932;2023-02-17T02:09:43;49230.25;;;-144.14;100.00
7075;BME280;3578;51.568;6.932;2023-02-17T02:12:18;49198.22;;;-144.14;100.00
7075;BME280;3578;51.568;6.932;2023-02-17T02:14:45;49260.28;;;-144.14;100.00
7075;BME280;3578;51.568;6.932;2023-02-17T02:17:28;49380.38;;;-144.14;100.00
7075;BME280;3578;51.568;6.932;2023-02-17T02:23:51;49284.28;;;-144.14;100.00
7075;BME280;3578;51.568;6.932;2023-02-17T02:33:01;49470.47;;;-144.14;100.00
7075;BME280;3578;51.568;6.932;2023-02-17T02:35:37;49500.50;;;-144.14;100.00
7075;BME280;3578;51.568;6.932;2023-02-17T02:38:15;49576.56;;;-144.14;100.00
7075;BME280;3578;51.568;6.932;2023-02-17T02:40:46;49624.59;;;-144.14;100.00
7075;BME280;3578;51.568;6.932;2023-02-17T02:43:16;49684.66;;;-144.14;100.00
7075;BME280;3578;51.568;6.932;2023-02-17T02:45:43;49662.66;;;-144.14;100.00
7075;BME280;3578;51.568;6.932;2023-02-17T02:48:11;49670.66;;;-144.14;100.00
7075;BME280;3578;51.568;6.932;2023-02-17T02:51:03;49666.66;;;-144.14;100.00
7075;BME280;3578;51.568;6.932;2023-02-17T02:54:14;49734.72;;;-144.14;100.00
7075;BME280;3578;51.568;6.932;2023-02-17T02:57:09;49756.75;;;-144.14;100.00
7075;BME280;3578;51.568;6.932;2023-02-17T02:59:48;49878.88;;;-144.14;100.00
7075;BME280;3578;51.568;6.932;2023-02-17T03:02:29;49880.88;;;-144.14;100.00
7075;BME280;3578;51.568;6.932;2023-02-17T03:05:06;49938.94;;;-144.14;100.00
7075;BME280;3578;51.568;6.932;2023-02-17T03:07:40;50001.00;;;-144.14;100.00
7075;BME280;3578;51.568;6.932;2023-02-17T03:10:10;50069.06;;;-144.14;100.00
7075;BME280;3578;51.568;6.932;2023-02-17T03:12:39;50061.06;;;-144.14;100.00
7075;BME280;3578;51.568;6.932;2023-02-17T03:15:13;50009.00;;;-144.14;100.00
7075;BME280;3578;51.568;6.932;2023-02-17T03:17:40;50053.06;;;-144.14;100.00
7075;BME280;3578;51.568;6.932;2023-02-17T03:20:10;50059.06;;;-144.14;100.00
7075;BME280;3578;51.568;6.932;2023-02-17T03:22:43;50015.00;;;-144.14;100.00
7075;BME280;3578;51.568;6.932;2023-02-17T03:25:11;50025.03;;;-144.14;100.00
7075;BME280;3578;51.568;6.932;2023-02-17T03:27:38;50029.03;;;-144.14;100.00
7075;BME280;3578;51.568;6.932;2023-02-17T03:30:06;50085.09;;;-144.14;100.00
7075;BME280;3578;51.568;6.932;2023-02-17T03:32:34;50115.13;;;-144.14;100.00
7075;BME280;3578;51.568;6.932;2023-02-17T03:35:01;50161.16;;;-144.14;100.00
7075;BME280;3578;51.568;6.932;2023-02-17T03:37:29;50169.19;;;-144.14;100.00
7075;BME280;3578;51.568;6.932;2023-02-17T03:39:57;50177.19;;;-144.14;100.00
7075;BME280;3578;51.568;6.932;2023-02-17T03:42:24;50145.16;;;-144.14;100.00
7075;BME280;3578;51.568;6.932;2023-02-17T03:44:51;50185.19;;;-144.14;100.00
7075;BME280;3578;51.568;6.932;2023-02-17T03:47:18;50191.19;;;-144.14;100.00
7075;BME280;3578;51.568;6.932;2023-02-17T03:49:44;50193.22;;;-144.14;100.00
7075;BME280;3578;51.568;6.932;2023-02-17T03:52:11;50185.19;;;-144.14;100.00
7075;BME280;3578;51.568;6.932;2023-02-17T03:54:40;50217.22;;;-144.14;100.00
7075;BME280;3578;51.568;6.932;2023-02-17T03:57:07;50259.28;;;-144.14;100.00
7075;BME280;3578;51.568;6.932;2023-02-17T03:59:34;50289.31;;;-144.14;100.00
7075;BME280;3578;51.568;6.932;2023-02-17T04:02:01;50297.31;;;-144.14;100.00
7075;BME280;3578;51.568;6.932;2023-02-17T04:04:29;50387.44;;;-144.14;100.00
7075;BME280;3578;51.568;6.932;2023-02-17T04:06:56;50389.44;;;-144.14;100.00
7075;BME280;3578;51.568;6.932;2023-02-17T04:09:23;50397.44;;;-144.14;100.00
7075;BME280;3578;51.568;6.932;2023-02-17T04:11:51;50381.44;;;-144.14;100.00
7075;BME280;3578;51.568;6.932;2023-02-17T04:14:18;50371.41;;;-144.14;100.00
7075;BME280;3578;51.568;6.932;2023-02-17T04:16:45;50439.50;;;-144.14;100.00
7075;BME280;3578;51.568;6.932;2023-02-17T04:19:12;50377.41;;;-144.14;100.00
7075;BME280;3578;51.568;6.932;2023-02-17T04:21:39;50381.44;;;-144.14;100.00
7075;BME280;3578;51.568;6.932;2023-02-17T04:24:06;50383.44;;;-144.14;100.00
7075;BME280;3578;51.568;6.932;2023-02-17T04:26:33;50329.38;;;-144.14;100.00
7075;BME280;3578;51.568;6.932;2023-02-17T04:29:02;50381.44;;;-144.14;100.00
7075;BME280;3578;51.568;6.932;2023-02-17T04:31:29;50393.44;;;-144.14;100.00
7075;BME280;3578;51.568;6.932;2023-02-17T04:33:56;50417.47;;;-144.14;100.00
7075;BME280;3578;51.568;6.932;2023-02-17T04:36:23;50435.50;;;-144.14;100.00
7075;BME280;3578;51.568;6.932;2023-02-17T04:38:51;50387.44;;;-144.14;100.00
7075;BME280;3578;51.568;6.932;2023-02-17T04:41:18;50345.38;;;-144.14;100.00
7075;BME280;3578;51.568;6.932;2023-02-17T04:43:45;50313.34;;;-144.14;100.00
7075;BME280;3578;51.568;6.932;2023-02-17T04:46:13;50309.34;;;-144.14;100.00
7075;BME280;3578;51.568;6.932;2023-02-17T04:48:40;50279.31;;;-144.14;100.00
7075;BME280;3578;51.568;6.932;2023-02-17T04:51:07;50297.31;;;-144.14;100.00
7075;BME280;3578;51.568;6.932;2023-02-17T04:53:34;50305.34;;;-144.14;100.00
7075;BME280;3578;51.568;6.932;2023-02-17T04:56:01;50363.41;;;-144.14;100.00
7075;BME280;3578;51.568;6.932;2023-02-17T04:58:28;50493.56;;;-144.14;99.99
7075;BME280;3578;51.568;6.932;2023-02-17T05:00:58;50575.66;;;-144.14;99.44
7075;BME280;3578;51.568;6.932;2023-02-17T05:03:26;50659.78;;;-144.14;98.91
7075;BME280;3578;51.568;6.932;2023-02-17T05:05:53;50659.78;;;-144.14;99.09
7075;BME280;3578;51.568;6.932;2023-02-17T05:08:20;50613.72;;;-144.14;99.76
7075;BME280;3578;51.568;6.932;2023-02-17T05:10:49;50601.69;;;-144.14;99.75
7075;BME280;3578;51.568;6.932;2023-02-17T05:13:16;50547.63;;;-144.14;100.00
7075;BME280;3578;51.568;6.932;2023-02-17T05:15:43;50495.56;;;-144.14;100.00
7075;BME280;3578;51.568;6.932;2023-02-17T05:18:11;50551.63;;;-144.14;100.00
7075;BME280;3578;51.568;6.932;2023-02-17T05:20:49;50587.69;;;-144.14;99.76
7075;BME280;3578;51.568;6.932;2023-02-17T05:23:20;50643.75;;;-144.14;99.23
7075;BME280;3578;51.568;6.932;2023-02-17T05:25:47;50643.75;;;-144.14;99.13
7075;BME280;3578;51.568;6.932;2023-02-17T05:28:14;50737.88;;;-144.14;98.64
7075;BME280;3578;51.568;6.932;2023-02-17T05:30:41;50721.84;;;-144.14;98.55
7075;BME280;3578;51.568;6.932;2023-02-17T05:33:08;50787.94;;;-144.14;98.30
7075;BME280;3578;51.568;6.932;2023-02-17T05:35:35;50801.97;;;-144.14;98.00
7075;BME280;3578;51.568;6.932;2023-02-17T05:38:04;50677.78;;;-144.14;99.26
7075;BME280;3578;51.568;6.932;2023-02-17T05:40:31;50713.84;;;-144.14;99.19
7075;BME280;3578;51.568;6.932;2023-02-17T05:42:58;50693.81;;;-144.14;99.76
7075;BME280;3578;51.568;6.932;2023-02-17T05:45:25;50647.75;;;-144.14;99.47
7075;BME280;3578;51.568;6.932;2023-02-17T05:47:52;50649.75;;;-144.14;99.79
7075;BME280;3578;51.568;6.932;2023-02-17T05:50:19;50635.75;;;-144.14;99.83
7075;BME280;3578;51.568;6.932;2023-02-17T05:52:46;50701.81;;;-144.14;99.21
7075;BME280;3578;51.568;6.932;2023-02-17T05:55:15;50715.84;;;-144.14;99.09
7075;BME280;3578;51.568;6.932;2023-02-17T05:57:42;50725.84;;;-144.14;99.14
7075;BME280;3578;51.568;6.932;2023-02-17T06:00:10;50737.88;;;-144.14;98.94
7075;BME280;3578;51.568;6.932;2023-02-17T06:02:37;50721.84;;;-144.14;99.09
7075;BME280;3578;51.568;6.932;2023-02-17T06:05:05;50715.84;;;-144.14;99.49
7075;BME280;3578;51.568;6.932;2023-02-17T06:07:33;50657.78;;;-144.14;99.86
7075;BME280;3578;51.568;6.932;2023-02-17T06:10:00;50687.81;;;-144.14;100.00
7075;BME280;3578;51.568;6.932;2023-02-17T06:12:28;50637.75;;;-144.14;100.00
7075;BME280;3578;51.568;6.932;2023-02-17T06:14:55;50627.72;;;-144.14;100.00
7075;BME280;3578;51.568;6.932;2023-02-17T06:17:22;50625.72;;;-144.14;100.00
7075;BME280;3578;51.568;6.932;2023-02-17T06:19:49;50661.78;;;-144.14;100.00
7075;BME280;3578;51.568;6.932;2023-02-17T06:22:16;50575.66;;;-144.14;100.00
7075;BME280;3578;51.568;6.932;2023-02-17T06:24:43;50585.69;;;-144.14;100.00
7075;BME280;3578;51.568;6.932;2023-02-17T06:27:10;50559.66;;;-144.14;100.00
7075;BME280;3578;51.568;6.932;2023-02-17T06:29:38;50597.69;;;-144.14;100.00
7075;BME280;3578;51.568;6.932;2023-02-17T06:32:07;50601.69;;;-144.14;100.00
7075;BME280;3578;51.568;6.932;2023-02-17T06:34:34;50563.66;;;-144.14;100.00
7075;BME280;3578;51.568;6.932;2023-02-17T06:37:01;50623.72;;;-144.14;100.00
7075;BME280;3578;51.568;6.932;2023-02-17T06:39:28;50621.72;;;-144.14;100.00
7075;BME280;3578;51.568;6.932;2023-02-17T06:41:54;50613.72;;;-144.14;100.00
7075;BME280;3578;51.568;6.932;2023-02-17T06:44:22;50641.75;;;-144.14;100.00
7075;BME280;3578;51.568;6.932;2023-02-17T06:46:51;50521.59;;;-144.14;100.00
7075;BME280;3578;51.568;6.932;2023-02-17T06:49:18;50531.59;;;-144.14;100.00
7075;BME280;3578;51.568;6.932;2023-02-17T06:51:46;50505.56;;;-144.14;100.00
7075;BME280;3578;51.568;6.932;2023-02-17T06:54:13;50465.53;;;-144.14;100.00
7075;BME280;3578;51.568;6.932;2023-02-17T06:56:40;50439.50;;;-144.14;100.00
7075;BME280;3578;51.568;6.932;2023-02-17T06:59:07;50325.34;;;-144.14;100.00
7075;BME280;3578;51.568;6.932;2023-02-17T07:01:34;50211.22;;;-144.14;100.00
7075;BME280;3578;51.568;6.932;2023-02-17T07:04:02;50145.16;;;-144.14;100.00
7075;BME280;3578;51.568;6.932;2023-02-17T07:06:29;50097.09;;;-144.14;100.00
7075;BME280;3578;51.568;6.932;2023-02-17T07:08:56;50101.09;;;-144.14;100.00
7075;BME280;3578;51.568;6.932;2023-02-17T07:11:23;50091.09;;;-144.14;100.00
7075;BME280;3578;51.568;6.932;2023-02-17T07:13:51;50067.06;;;-144.14;100.00
7075;BME280;3578;51.568;6.932;2023-02-17T07:16:19;50085.09;;;-144.14;100.00
7075;BME280;3578;51.568;6.932;2023-02-17T07:18:46;50011.00;;;-144.14;100.00
7075;BME280;3578;51.568;6.932;2023-02-17T07:21:14;50061.06;;;-144.14;100.00
7075;BME280;3578;51.568;6.932;2023-02-17T07:23:47;50079.06;;;-144.14;100.00
7075;BME280;3578;51.568;6.932;2023-02-17T07:26:30;50109.13;;;-144.14;100.00
7075;BME280;3578;51.568;6.932;2023-02-17T07:28:58;50093.09;;;-144.14;100.00
7075;BME280;3578;51.568;6.932;2023-02-17T07:31:29;50127.13;;;-144.14;100.00
7075;BME280;3578;51.568;6.932;2023-02-17T07:34:03;50085.09;;;-144.14;100.00
7075;BME280;3578;51.568;6.932;2023-02-17T07:36:33;50101.09;;;-144.14;100.00
7075;BME280;3578;51.568;6.932;2023-02-17T07:39:02;50097.09;;;-144.14;100.00
7075;BME280;3578;51.568;6.932;2023-02-17T07:41:29;50135.13;;;-144.14;100.00
7075;BME280;3578;51.568;6.932;2023-02-17T07:43:58;50111.13;;;-144.14;100.00
7075;BME280;3578;51.568;6.932;2023-02-17T07:46:26;50117.13;;;-144.14;100.00
7075;BME280;3578;51.568;6.932;2023-02-17T07:48:55;50109.13;;;-144.14;100.00
7075;BME280;3578;51.568;6.932;2023-02-17T07:51:22;50143.16;;;-144.14;100.00
7075;BME280;3578;51.568;6.932;2023-02-17T07:53:51;50129.13;;;-144.14;100.00
7075;BME280;3578;51.568;6.932;2023-02-17T07:56:20;50121.13;;;-144.14;100.00
7075;BME280;3578;51.568;6.932;2023-02-17T07:58:49;50145.16;;;-144.14;100.00
7075;BME280;3578;51.568;6.932;2023-02-17T08:01:18;50201.22;;;-144.14;100.00
7075;BME280;3578;51.568;6.932;2023-02-17T08:03:46;50207.22;;;-144.14;100.00
7075;BME280;3578;51.568;6.932;2023-02-17T08:06:16;50207.22;;;-144.14;100.00
7075;BME280;3578;51.568;6.932;2023-02-17T08:08:43;50217.22;;;-144.14;100.00
7075;BME280;3578;51.568;6.932;2023-02-17T08:11:32;50207.22;;;-144.14;100.00
7075;BME280;3578;51.568;6.932;2023-02-17T08:14:17;50273.31;;;-144.14;100.00
7075;BME280;3578;51.568;6.932;2023-02-17T08:16:44;50251.28;;;-144.14;100.00
7075;BME280;3578;51.568;6.932;2023-02-17T08:19:10;50225.25;;;-144.14;100.00
7075;BME280;3578;51.568;6.932;2023-02-17T08:21:38;50181.19;;;-144.14;100.00
7075;BME280;3578;51.568;6.932;2023-02-17T08:24:05;50193.22;;;-144.14;100.00
7075;BME280;3578;51.568;6.932;2023-02-17T08:26:34;50177.19;;;-144.14;100.00
7075;BME280;3578;51.568;6.932;2023-02-17T08:29:01;50165.19;;;-144.14;100.00
7075;BME280;3578;51.568;6.932;2023-02-17T08:31:31;50185.19;;;-144.14;100.00
7075;BME280;3578;51.568;6.932;2023-02-17T08:34:00;50193.22;;;-144.14;100.00
7075;BME280;3578;51.568;6.932;2023-02-17T08:36:28;50247.28;;;-144.14;100.00
7075;BME280;3578;51.568;6.932;2023-02-17T08:38:56;50277.31;;;-144.14;100.00
7075;BME280;3578;51.568;6.932;2023-02-17T08:41:26;50283.31;;;-144.14;100.00
7075;BME280;3578;51.568;6.932;2023-02-17T08:43:56;50273.31;;;-144.14;100.00
7075;BME280;3578;51.568;6.932;2023-02-17T08:46:27;50327.38;;;-144.14;100.00
7075;BME280;3578;51.568;6.932;2023-02-17T08:48:55;50375.41;;;-144.14;100.00
7075;BME280;3578;51.568;6.932;2023-02-17T08:51:23;50399.44;;;-144.14;100.00
7075;BME280;3578;51.568;6.932;2023-02-17T08:53:53;50377.41;;;-144.14;100.00
7075;BME280;3578;51.568;6.932;2023-02-17T08:56:20;50441.50;;;-144.14;100.00
7075;BME280;3578;51.568;6.932;2023-02-17T08:58:48;50451.50;;;-144.14;100.00
7075;BME280;3578;51.568;6.932;2023-02-17T09:01:18;50527.59;;;-144.14;100.00
7075;BME280;3578;51.568;6.932;2023-02-17T09:03:46;50525.59;;;-144.14;100.00
7075;BME280;3578;51.568;6.932;2023-02-17T09:06:14;50463.53;;;-144.14;100.00
7075;BME280;3578;51.568;6.932;2023-02-17T09:08:42;50517.59;;;-144.14;100.00
7075;BME280;3578;51.568;6.932;2023-02-17T09:11:10;50575.66;;;-144.14;100.00
7075;BME280;3578;51.568;6.932;2023-02-17T09:13:37;50575.66;;;-144.14;100.00
7075;BME280;3578;51.568;6.932;2023-02-17T09:16:05;50621.72;;;-144.14;100.00
7075;BME280;3578;51.568;6.932;2023-02-17T09:18:33;50629.72;;;-144.14;100.00
7075;BME280;3578;51.568;6.932;2023-02-17T09:21:06;50667.78;;;-144.14;100.00
7075;BME280;3578;51.568;6.932;2023-02-17T09:23:34;50641.75;;;-144.14;100.00
7075;BME280;3578;51.568;6.932;2023-02-17T09:26:03;50617.72;;;-144.14;100.00
7075;BME280;3578;51.568;6.932;2023-02-17T09:28:31;50645.75;;;-144.14;100.00
7075;BME280;3578;51.568;6.932;2023-02-17T09:30:59;50667.78;;;-144.14;100.00
7075;BME280;3578;51.568;6.932;2023-02-17T09:33:35;50725.84;;;-144.14;100.00
7075;BME280;3578;51.568;6.932;2023-02-17T09:36:02;50761.91;;;-144.14;99.66
7075;BME280;3578;51.568;6.932;2023-02-17T09:38:29;50801.97;;;-144.14;99.27
7075;BME280;3578;51.568;6.932;2023-02-17T09:41:03;50830.00;;;-144.14;98.96
7075;BME280;3578;51.568;6.932;2023-02-17T09:43:33;50850.03;;;-144.14;98.92
7075;BME280;3578;51.568;6.932;2023-02-17T09:46:06;50868.03;;;-144.14;98.78
7075;BME280;3578;51.568;6.932;2023-02-17T09:48:38;50862.03;;;-144.14;98.55
7075;BME280;3578;51.568;6.932;2023-02-17T09:51:13;50882.06;;;-144.14;98.28
7075;BME280;3578;51.568;6.932;2023-02-17T09:53:48;50930.13;;;-144.14;98.25
7075;BME280;3578;51.568;6.932;2023-02-17T09:56:34;50898.09;;;-144.14;98.66
7075;BME280;3578;51.568;6.932;2023-02-17T09:59:07;50896.09;;;-144.14;98.83
7075;BME280;3578;51.568;6.932;2023-02-17T10:01:37;50888.06;;;-144.14;99.01
7075;BME280;3578;51.568;6.932;2023-02-17T10:04:11;50920.13;;;-144.14;98.67
7075;BME280;3578;51.568;6.932;2023-02-17T10:06:43;50958.16;;;-144.14;98.14
7075;BME280;3578;51.568;6.932;2023-02-17T10:09:16;50974.19;;;-144.14;98.12
7075;BME280;3578;51.568;6.932;2023-02-17T10:11:52;50964.16;;;-144.14;97.87
7075;BME280;3578;51.568;6.932;2023-02-17T10:14:28;50954.16;;;-144.14;97.94
7075;BME280;3578;51.568;6.932;2023-02-17T10:17:02;51006.22;;;-144.14;97.90
7075;BME280;3578;51.568;6.932;2023-02-17T10:19:36;51034.28;;;-144.14;97.70
7075;BME280;3578;51.568;6.932;2023-02-17T10:22:10;51056.31;;;-144.14;97.65
7075;BME280;3578;51.568;6.932;2023-02-17T10:24:39;51022.25;;;-144.14;97.91
7075;BME280;3578;51.568;6.932;2023-02-17T10:27:29;51088.34;;;-144.14;97.40
7075;BME280;3578;51.568;6.932;2023-02-17T10:30:13;51114.38;;;-144.14;97.00
7075;BME280;3578;51.568;6.932;2023-02-17T10:32:55;51120.38;;;-144.14;97.29
7075;BME280;3578;51.568;6.932;2023-02-17T10:35:38;51106.38;;;-144.14;97.52
7075;BME280;3578;51.568;6.932;2023-02-17T10:38:16;51138.41;;;-144.14;97.34
7075;BME280;3578;51.568;6.932;2023-02-17T10:40:46;51132.41;;;-144.14;97.48
7075;BME280;3578;51.568;6.932;2023-02-17T10:43:21;51174.47;;;-144.14;96.96
7075;BME280;3578;51.568;6.932;2023-02-17T10:45:50;51172.47;;;-144.14;96.75
7075;BME280;3578;51.568;6.932;2023-02-17T10:48:21;51210.53;;;-144.14;96.33
7075;BME280;3578;51.568;6.932;2023-02-17T10:51:00;51204.50;;;-144.14;96.44
7075;BME280;3578;51.568;6.932;2023-02-17T10:53:31;51266.59;;;-144.14;96.02
7075;BME280;3578;51.568;6.932;2023-02-17T10:56:03;51286.63;;;-144.14;95.88
7075;BME280;3578;51.568;6.932;2023-02-17T10:58:36;51310.66;;;-144.14;95.79
7075;BME280;3578;51.568;6.932;2023-02-17T11:01:04;51284.63;;;-144.14;95.67
7075;BME280;3578;51.568;6.932;2023-02-17T11:03:34;51268.59;;;-144.14;95.84
7075;BME280;3578;51.568;6.932;2023-02-17T11:06:13;51320.69;;;-144.14;95.54
7075;BME280;3578;51.568;6.932;2023-02-17T11:08:46;51338.72;;;-144.14;95.40
7075;BME280;3578;51.568;6.932;2023-02-17T11:11:18;51330.69;;;-144.14;95.16
7075;BME280;3578;51.568;6.932;2023-02-17T11:14:01;51258.59;;;-144.14;95.60
7075;BME280;3578;51.568;6.932;2023-02-17T11:16:35;51366.75;;;-144.14;94.92
7075;BME280;3578;51.568;6.932;2023-02-17T11:19:03;51470.91;;;-144.14;93.80
7075;BME280;3578;51.568;6.932;2023-02-17T11:21:32;51462.88;;;-144.14;93.37
7075;BME280;3578;51.568;6.932;2023-02-17T11:24:05;51527.00;;;-144.14;92.61
7075;BME280;3578;51.568;6.932;2023-02-17T11:26:34;51647.19;;;-144.14;91.83
7075;BME280;3578;51.568;6.932;2023-02-17T11:29:09;51681.22;;;-144.14;91.76
7075;BME280;3578;51.568;6.932;2023-02-17T11:31:36;51763.34;;;-144.14;91.35
7075;BME280;3578;51.568;6.932;2023-02-17T11:34:14;51759.34;;;-144.14;91.18
7075;BME280;3578;51.568;6.932;2023-02-17T11:36:44;51783.41;;;-144.14;90.60
7075;BME280;3578;51.568;6.932;2023-02-17T11:39:20;51787.41;;;-144.14;90.39
7075;BME280;3578;51.568;6.932;2023-02-17T11:41:47;51787.41;;;-144.14;91.55
7075;BME280;3578;51.568;6.932;2023-02-17T11:44:23;51751.34;;;-144.14;91.57
7075;BME280;3578;51.568;6.932;2023-02-17T11:47:02;51805.44;;;-144.14;91.15
7075;BME280;3578;51.568;6.932;2023-02-17T11:50:03;51765.38;;;-144.14;91.58
7075;BME280;3578;51.568;6.932;2023-02-17T11:53:01;51765.38;;;-144.14;91.32
7075;BME280;3578;51.568;6.932;2023-02-17T11:55:37;51767.38;;;-144.14;92.06
7075;BME280;3578;51.568;6.932;2023-02-17T11:58:21;51741.31;;;-144.14;91.92
7075;BME280;3578;51.568;6.932;2023-02-17T12:00:59;51749.34;;;-144.14;92.25
7075;BME280;3578;51.568;6.932;2023-02-17T12:06:43;51833.47;;;-144.14;90.22
7075;BME280;3578;51.568;6.932;2023-02-17T12:09:21;51875.53;;;-144.14;90.16
7075;BME280;3578;51.568;6.932;2023-02-17T12:12:00;51917.63;;;-144.14;90.07
7075;BME280;3578;51.568;6.932;2023-02-17T12:14:51;51907.59;;;-144.14;90.11
7075;BME280;3578;51.568;6.932;2023-02-17T12:17:29;51887.56;;;-144.14;89.60
7075;BME280;3578;51.568;6.932;2023-02-17T12:20:19;51961.69;;;-144.14;89.92
7075;BME280;3578;51.568;6.932;2023-02-17T12:23:05;51925.63;;;-144.14;89.80
7075;BME280;3578;51.568;6.932;2023-02-17T12:25:38;51915.59;;;-144.14;89.99
7075;BME280;3578;51.568;6.932;2023-02-17T12:28:35;51931.63;;;-144.14;89.88
7075;BME280;3578;51.568;6.932;2023-02-17T12:31:15;51917.63;;;-144.14;90.36
7075;BME280;3578;51.568;6.932;2023-02-17T12:33:55;51929.63;;;-144.14;90.55
7075;BME280;3578;51.568;6.932;2023-02-17T12:36:29;51907.59;;;-144.14;90.55
7075;BME280;3578;51.568;6.932;2023-02-17T12:39:01;51959.69;;;-144.14;90.31
7075;BME280;3578;51.568;6.932;2023-02-17T12:41:34;51883.56;;;-144.14;91.21
7075;BME280;3578;51.568;6.932;2023-02-17T12:44:05;51885.56;;;-144.14;91.68
7075;BME280;3578;51.568;6.932;2023-02-17T12:46:40;51889.56;;;-144.14;91.36
7075;BME280;3578;51.568;6.932;2023-02-17T12:49:12;51889.56;;;-144.14;91.29
7075;BME280;3578;51.568;6.932;2023-02-17T12:51:43;51911.59;;;-144.14;91.35
7075;BME280;3578;51.568;6.932;2023-02-17T12:54:16;51873.53;;;-144.14;91.61
7075;BME280;3578;51.568;6.932;2023-02-17T12:57:12;51853.50;;;-144.14;91.80
7075;BME280;3578;51.568;6.932;2023-02-17T12:59:42;51911.59;;;-144.14;91.61
7075;BME280;3578;51.568;6.932;2023-02-17T13:02:13;51915.59;;;-144.14;91.29
7075;BME280;3578;51.568;6.932;2023-02-17T13:04:42;51875.53;;;-144.14;91.67
7075;BME280;3578;51.568;6.932;2023-02-17T13:10:20;51851.50;;;-144.14;91.99
7075;BME280;3578;51.568;6.932;2023-02-17T13:13:05;51851.50;;;-144.14;92.39
7075;BME280;3578;51.568;6.932;2023-02-17T13:15:40;51879.56;;;-144.14;92.76
7075;BME280;3578;51.568;6.932;2023-02-17T13:18:12;51851.50;;;-144.14;93.10
7075;BME280;3578;51.568;6.932;2023-02-17T13:20:56;51839.47;;;-144.14;92.80
7075;BME280;3578;51.568;6.932;2023-02-17T13:23:34;51845.50;;;-144.14;93.00
7075;BME280;3578;51.568;6.932;2023-02-17T13:26:33;51841.50;;;-144.14;92.85
7075;BME280;3578;51.568;6.932;2023-02-17T13:29:33;51867.53;;;-144.14;92.78